^^
nws-alerts.php - 1.15 - 19-Aug-2013 - NWS Public Alerts
Station Historical Data
 
Daily Summary for August 16, 2017 Units:  English    Metric   Both
« Previous Day
Next Day »
Daily Weekly Monthly Yearly Custom
  Current: High: Low: Average:
Temperature: 80.0 °F 96.4 °F 73.6 °F 82.1 °F
Dew Point: 77.5 °F 80.7 °F 72.7 °F 77.8 °F
Humidity: 92% 98% 56% 88%
Wind Speed: 0.0mph 14.9mph 0.0mph 0.9mph
Wind Gust: 0.0mph 20.7mph - -
WindCalm - - SSE
Pressure: 30.09 in 30.13 in 30.03 in -
Precipitation: 1.49 in      
Historical Graphs
 
 
Tabular Data for August 16, 2017
Time Temperature Dew Point Pressure Wind Wind Speed Wind Gust Humidity Rainfall Rate (Hourly) Conditions
00:01 80.7 °F 78.8 °F 30.08 in Calm     94% 0.00 in 0.0 W/m2
00:06 80.5 °F 78.6 °F 30.08 in Calm     94% 0.00 in 0.0 W/m2
00:11 80.1 °F 78.2 °F 30.08 in Calm     94% 0.00 in 0.0 W/m2
00:16 79.9 °F 78.3 °F 30.08 in Calm     95% 0.00 in 0.0 W/m2
00:21 79.9 °F 78.3 °F 30.08 in Calm     95% 0.00 in 0.0 W/m2
00:26 80.0 °F 78.4 °F 30.08 in Calm     95% 0.00 in 0.0 W/m2
00:31 80.4 °F 78.8 °F 30.08 in Calm     95% 0.00 in 0.0 W/m2
00:36 80.7 °F 78.8 °F 30.08 in Calm     94% 0.00 in 0.0 W/m2
00:41 80.7 °F 78.5 °F 30.07 in Calm     93% 0.00 in 0.0 W/m2
00:46 80.5 °F 78.6 °F 30.08 in Calm     94% 0.00 in 0.0 W/m2
00:52 80.3 °F 78.4 °F 30.07 in Calm     94% 0.00 in 0.0 W/m2
00:57 80.0 °F 78.1 °F 30.07 in Calm     94% 0.00 in 0.0 W/m2
01:02 79.8 °F 78.2 °F 30.07 in Calm     95% 0.00 in 0.0 W/m2
01:07 79.7 °F 78.1 °F 30.07 in Calm     95% 0.00 in 0.0 W/m2
01:12 79.5 °F 77.9 °F 30.07 in Calm     95% 0.00 in 0.0 W/m2
01:17 79.3 °F 77.7 °F 30.07 in Calm     95% 0.00 in 0.0 W/m2
01:22 79.2 °F 78.0 °F 30.06 in Calm     96% 0.00 in 0.0 W/m2
01:27 79.1 °F 77.9 °F 30.06 in Calm     96% 0.00 in 0.0 W/m2
01:32 79.1 °F 77.9 °F 30.06 in Calm     96% 0.00 in 0.0 W/m2
01:37 79.2 °F 78.0 °F 30.06 in Calm     96% 0.00 in 0.0 W/m2
01:42 79.1 °F 77.9 °F 30.06 in Calm     96% 0.00 in 0.0 W/m2
01:47 79.1 °F 78.2 °F 30.06 in Calm     97% 0.00 in 0.0 W/m2
01:52 79.1 °F 78.2 °F 30.06 in Calm     97% 0.00 in 0.0 W/m2
01:57 79.0 °F 78.1 °F 30.06 in Calm     97% 0.00 in 0.0 W/m2
02:02 79.0 °F 78.1 °F 30.05 in Calm     97% 0.00 in 0.0 W/m2
02:07 79.0 °F 78.1 °F 30.05 in Calm     97% 0.00 in 0.0 W/m2
02:12 79.0 °F 78.1 °F 30.05 in Calm     97% 0.00 in 0.0 W/m2
02:17 78.9 °F 78.0 °F 30.05 in Calm     97% 0.00 in 0.0 W/m2
02:22 78.9 °F 78.0 °F 30.05 in Calm     97% 0.00 in 0.0 W/m2
02:27 78.9 °F 78.0 °F 30.04 in Calm     97% 0.00 in 0.0 W/m2
02:33 78.8 °F 77.9 °F 30.04 in Calm     97% 0.00 in 0.0 W/m2
02:38 78.8 °F 77.9 °F 30.04 in Calm     97% 0.00 in 0.0 W/m2
02:43 79.2 °F 78.3 °F 30.04 in Calm     97% 0.00 in 0.0 W/m2
02:48 79.5 °F 78.3 °F 30.04 in Calm     96% 0.00 in 0.0 W/m2
02:53 79.5 °F 77.9 °F 30.04 in Calm     95% 0.00 in 0.0 W/m2
02:58 79.2 °F 77.6 °F 30.04 in Calm     95% 0.00 in 0.0 W/m2
03:03 79.0 °F 77.4 °F 30.03 in Calm     95% 0.00 in 0.0 W/m2
03:08 78.8 °F 77.6 °F 30.04 in Calm     96% 0.00 in 0.0 W/m2
03:13 78.6 °F 77.4 °F 30.04 in Calm     96% 0.00 in 0.0 W/m2
03:18 78.5 °F 77.3 °F 30.04 in Calm     96% 0.00 in 0.0 W/m2
03:23 78.2 °F 77.0 °F 30.03 in Calm     96% 0.00 in 0.0 W/m2
03:28 78.1 °F 77.2 °F 30.03 in Calm     97% 0.00 in 0.0 W/m2
03:33 78.1 °F 77.2 °F 30.03 in Calm     97% 0.00 in 0.0 W/m2
03:38 78.0 °F 77.1 °F 30.03 in Calm     97% 0.00 in 0.0 W/m2
03:43 77.9 °F 77.0 °F 30.03 in Calm     97% 0.00 in 0.0 W/m2
03:49 78.0 °F 77.1 °F 30.03 in Calm     97% 0.00 in 0.0 W/m2
03:54 77.8 °F 76.9 °F 30.03 in Calm     97% 0.00 in 0.0 W/m2
03:59 78.0 °F 77.1 °F 30.03 in Calm     97% 0.00 in 0.0 W/m2
04:04 78.0 °F 77.1 °F 30.03 in Calm     97% 0.00 in 0.0 W/m2
04:09 78.0 °F 77.1 °F 30.03 in Calm     97% 0.00 in 0.0 W/m2
04:14 77.9 °F 77.0 °F 30.03 in Calm     97% 0.00 in 0.0 W/m2
04:19 77.7 °F 76.8 °F 30.03 in Calm     97% 0.00 in 0.0 W/m2
04:24 77.8 °F 76.9 °F 30.04 in Calm     97% 0.00 in 0.0 W/m2
04:29 77.7 °F 76.8 °F 30.04 in Calm     97% 0.00 in 0.0 W/m2
04:34 77.7 °F 77.1 °F 30.04 in Calm     98% 0.00 in 0.0 W/m2
04:39 77.6 °F 76.7 °F 30.04 in Calm     97% 0.00 in 0.0 W/m2
04:44 77.5 °F 76.6 °F 30.04 in Calm     97% 0.00 in 0.0 W/m2
04:49 77.5 °F 76.6 °F 30.04 in Calm     97% 0.00 in 0.0 W/m2
04:51 77.5 °F 76.9 °F 30.04 in Calm     98% 0.00 in 0.0 W/m2
04:56 77.6 °F 77.0 °F 30.04 in Calm     98% 0.00 in 0.0 W/m2
05:01 77.6 °F 77.0 °F 30.04 in Calm     98% 0.00 in 0.0 W/m2
05:07 77.5 °F 76.9 °F 30.04 in Calm     98% 0.00 in 0.0 W/m2
05:12 77.4 °F 76.8 °F 30.04 in Calm     98% 0.00 in 0.0 W/m2
05:17 77.5 °F 76.9 °F 30.04 in Calm     98% 0.00 in 0.0 W/m2
05:22 77.3 °F 76.7 °F 30.05 in Calm     98% 0.00 in 0.0 W/m2
05:27 77.4 °F 76.8 °F 30.05 in Calm     98% 0.00 in 0.0 W/m2
05:32 77.3 °F 76.7 °F 30.05 in Calm     98% 0.00 in 0.0 W/m2
05:37 77.2 °F 76.6 °F 30.05 in Calm     98% 0.00 in 0.0 W/m2
05:42 77.2 °F 76.6 °F 30.05 in Calm     98% 0.00 in 0.0 W/m2
05:47 77.2 °F 76.6 °F 30.05 in Calm     98% 0.00 in 0.0 W/m2
05:52 77.2 °F 76.6 °F 30.06 in Calm     98% 0.00 in 0.0 W/m2
05:57 77.1 °F 76.5 °F 30.06 in Calm     98% 0.00 in 0.0 W/m2
06:02 77.2 °F 76.6 °F 30.06 in Calm     98% 0.00 in 0.0 W/m2
06:07 77.1 °F 76.5 °F 30.06 in Calm     98% 0.00 in 0.0 W/m2
06:12 77.1 °F 76.5 °F 30.06 in Calm     98% 0.00 in 0.0 W/m2
06:17 77.2 °F 76.6 °F 30.06 in Calm     98% 0.00 in 0.0 W/m2
06:22 77.2 °F 76.6 °F 30.06 in Calm     98% 0.00 in 0.0 W/m2
06:27 77.1 °F 76.5 °F 30.06 in Calm     98% 0.00 in 0.0 W/m2
06:32 77.1 °F 76.5 °F 30.07 in Calm     98% 0.00 in 0.0 W/m2
06:37 77.0 °F 76.4 °F 30.07 in Calm     98% 0.00 in 0.0 W/m2
06:42 77.2 °F 76.6 °F 30.07 in Calm     98% 0.00 in 0.0 W/m2
06:47 77.2 °F 76.6 °F 30.07 in Calm     98% 0.00 in 0.0 W/m2
06:52 77.1 °F 76.5 °F 30.07 in Calm     98% 0.00 in 0.0 W/m2
06:58 76.9 °F 76.3 °F 30.07 in Calm     98% 0.00 in 0.0 W/m2
07:02 76.8 °F 76.2 °F 30.07 in Calm     98% 0.00 in 0.0 W/m2
07:08 76.8 °F 76.2 °F 30.07 in Calm     98% 0.00 in 0.0 W/m2
07:13 76.9 °F 76.3 °F 30.07 in Calm     98% 0.00 in 0.0 W/m2
07:18 77.4 °F 76.8 °F 30.08 in Calm     98% 0.00 in 0.0 W/m2
07:23 77.5 °F 76.9 °F 30.08 in Calm     98% 0.00 in 0.0 W/m2
07:28 77.7 °F 77.1 °F 30.08 in Calm     98% 0.00 in 0.0 W/m2
07:33 78.0 °F 77.4 °F 30.08 in Calm     98% 0.00 in 0.0 W/m2
07:38 78.5 °F 77.9 °F 30.08 in Calm     98% 0.00 in 0.0 W/m2
07:43 79.2 °F 78.6 °F 30.08 in Calm     98% 0.00 in 0.0 W/m2
07:48 80.0 °F 79.4 °F 30.08 in Calm     98% 0.00 in 0.0 W/m2
07:53 80.6 °F 79.4 °F 30.08 in Calm     96% 0.00 in 0.0 W/m2
07:58 81.2 °F 79.6 °F 30.09 in Calm     95% 0.00 in 0.0 W/m2
08:03 81.7 °F 79.5 °F 30.09 in Calm     93% 0.00 in 0.0 W/m2
08:08 82.3 °F 79.7 °F 30.09 in Calm     92% 0.00 in 0.0 W/m2
08:13 82.8 °F 79.9 °F 30.09 in Calm     91% 0.00 in 0.0 W/m2
08:18 83.3 °F 79.4 °F 30.10 in Calm     88% 0.00 in 0.0 W/m2
08:23 83.6 °F 79.7 °F 30.10 in East 1.2 mph 1.2 mph 88% 0.00 in 0.0 W/m2
08:28 83.7 °F 79.4 °F 30.10 in ENE 1.2 mph 2.3 mph 87% 0.00 in 0.0 W/m2
08:33 84.2 °F 80.3 °F 30.10 in Calm   1.2 mph 88% 0.00 in 0.0 W/m2
08:39 84.8 °F 79.4 °F 30.10 in ESE 1.0 mph 2.3 mph 84% 0.00 in 0.0 W/m2
08:44 84.9 °F 79.5 °F 30.10 in East 0.7 mph 3.3 mph 84% 0.00 in 0.0 W/m2
08:49 85.2 °F 79.4 °F 30.11 in East 2.8 mph 3.5 mph 83% 0.00 in 0.0 W/m2
08:54 85.3 °F 79.2 °F 30.10 in East 3.1 mph 3.5 mph 82% 0.00 in 0.0 W/m2
08:59 85.4 °F 79.3 °F 30.11 in East 0.8 mph 2.3 mph 82% 0.00 in 0.0 W/m2
09:04 85.7 °F 79.2 °F 30.10 in East 2.2 mph 3.5 mph 81% 0.00 in 0.0 W/m2
09:09 85.9 °F 79.4 °F 30.10 in East 1.4 mph 2.3 mph 81% 0.00 in 0.0 W/m2
09:14 86.1 °F 79.2 °F 30.10 in ENE 3.9 mph 5.8 mph 80% 0.00 in 0.0 W/m2
09:19 86.5 °F 79.6 °F 30.11 in ENE 2.8 mph 3.5 mph 80% 0.00 in 0.0 W/m2
09:24 86.6 °F 79.7 °F 30.11 in NE 4.0 mph 4.6 mph 80% 0.00 in 0.0 W/m2
09:29 86.5 °F 79.6 °F 30.11 in East 4.7 mph 5.8 mph 80% 0.00 in 0.0 W/m2
09:34 86.7 °F 79.8 °F 30.11 in NE 1.4 mph 4.6 mph 80% 0.00 in 0.0 W/m2
09:39 87.2 °F 80.7 °F 30.11 in ENE 0.1 mph 2.3 mph 81% 0.00 in 0.0 W/m2
09:44 87.8 °F 80.1 °F 30.11 in ENE 2.3 mph 3.5 mph 78% 0.00 in 0.0 W/m2
09:49 87.7 °F 79.6 °F 30.11 in ENE 3.8 mph 5.8 mph 77% 0.00 in 0.0 W/m2
09:54 88.0 °F 80.3 °F 30.11 in NE 1.1 mph 2.3 mph 78% 0.00 in 0.0 W/m2
10:00 88.4 °F 80.3 °F 30.11 in NE 1.0 mph 3.0 mph 77% 0.00 in 409.9 W/m2
10:05 88.6 °F 79.7 °F 30.11 in NNE 2.0 mph 5.0 mph 75% 0.00 in 421.7 W/m2
10:10 88.8 °F 79.4 °F 30.11 in Calm   5.0 mph 74% 0.00 in 414.4 W/m2
10:15 89.2 °F 80.2 °F 30.11 in Calm   3.0 mph 75% 0.00 in 39.5 W/m2
10:20 89.2 °F 79.8 °F 30.12 in Calm   6.0 mph 74% 0.00 in 12.2 W/m2
10:25 89.6 °F 79.8 °F 30.12 in NE 3.0 mph 5.0 mph 73% 0.00 in 432.6 W/m2
10:30 89.5 °F 79.7 °F 30.12 in Calm   3.0 mph 73% 0.00 in 24.0 W/m2
10:35 89.6 °F 79.4 °F 30.12 in NNW 5.0 mph 6.0 mph 72% 0.00 in 0.0 W/m2
10:40 89.5 °F 79.7 °F 30.12 in NNE 2.0 mph 3.0 mph 73% 0.00 in 0.0 W/m2
10:45 88.9 °F 79.1 °F 30.12 in ESE 0.2 mph 3.5 mph 73% 0.00 in 0.0 W/m2
10:50 89.5 °F 79.7 °F 30.12 in East 1.0 mph 3.0 mph 73% 0.00 in 0.0 W/m2
10:55 90.0 °F 79.4 °F 30.12 in Calm   3.0 mph 71% 0.00 in 0.0 W/m2
11:00 90.9 °F 79.3 °F 30.12 in Calm   3.0 mph 69% 0.00 in 0.0 W/m2
11:03 90.9 °F 79.3 °F 30.12 in ENE 3.0 mph 4.6 mph 69% 0.00 in 24.0 W/m2
11:05 90.6 °F 79.5 °F 30.12 in East 2.3 mph 3.5 mph 70% 0.00 in 24.0 W/m2
11:10 89.9 °F 78.8 °F 30.12 in ENE 1.0 mph 3.0 mph 70% 0.00 in 432.6 W/m2
11:15 89.9 °F 78.8 °F 30.12 in Calm   1.0 mph 70% 0.00 in 12.2 W/m2
11:20 89.9 °F 79.7 °F 30.12 in ESE 1.0 mph 3.0 mph 72% 0.00 in 39.5 W/m2
11:25 89.2 °F 79.0 °F 30.12 in East 1.0 mph 3.0 mph 72% 0.00 in 96.8 W/m2
11:30 89.5 °F 79.7 °F 30.12 in ENE 1.0 mph 3.0 mph 73% 0.00 in 376.2 W/m2
11:35 89.9 °F 79.2 °F 30.12 in Calm   3.0 mph 71% 0.00 in 462.7 W/m2
11:40 89.7 °F 78.6 °F 30.12 in NE 2.0 mph 5.0 mph 70% 0.00 in 364.4 W/m2
11:41 89.8 °F 79.1 °F 30.12 in NE 1.7 mph 3.5 mph 71% 0.00 in 364.4 W/m2
11:46 89.9 °F 78.4 °F 30.12 in Calm     69% 0.00 in 392.6 W/m2
11:51 90.7 °F 78.2 °F 30.12 in Calm     67% 0.00 in 451.7 W/m2
11:52 90.9 °F 78.9 °F 30.11 in Calm     68% 0.00 in 358.0 W/m2
11:57 91.3 °F 78.8 °F 30.11 in NE 2.4 mph 4.6 mph 67% 0.00 in 393.5 W/m2
12:02 91.2 °F 79.6 °F 30.11 in Calm   1.2 mph 69% 0.00 in 358.0 W/m2
12:07 92.6 °F 79.6 °F 30.11 in NE 0.7 mph 2.3 mph 66% 0.00 in 451.7 W/m2
12:12 92.3 °F 78.8 °F 30.11 in ENE 1.7 mph 3.5 mph 65% 0.00 in 392.6 W/m2
12:17 92.3 °F 78.8 °F 30.11 in SSE 0.9 mph 3.5 mph 65% 0.00 in 364.4 W/m2
12:22 93.1 °F 79.1 °F 30.11 in Calm     64% 0.00 in 462.7 W/m2
12:27 94.3 °F 78.3 °F 30.11 in WSW 0.1 mph 2.3 mph 60% 0.00 in 480.8 W/m2
12:32 95.1 °F 78.0 °F 30.10 in SW 0.3 mph   58% 0.00 in 480.8 W/m2
12:37 95.6 °F 78.5 °F 30.10 in ESE 1.9 mph 3.3 mph 58% 0.00 in 0.0 W/m2
12:42 95.5 °F 78.4 °F 30.10 in SSE 0.4 mph 1.2 mph 58% 0.00 in 476.3 W/m2
12:47 96.3 °F 78.6 °F 30.10 in Calm   1.2 mph 57% 0.00 in 468.1 W/m2
12:53 96.4 °F 79.7 °F 30.10 in SSE 4.0 mph 4.4 mph 59% 0.00 in 292.5 W/m2
12:58 95.5 °F 78.4 °F 30.10 in SSE 0.2 mph 2.3 mph 58% 0.00 in 0.0 W/m2
13:03 94.4 °F 78.4 °F 30.09 in SSW 2.1 mph 2.3 mph 60% 0.00 in 245.2 W/m2
13:08 93.6 °F 78.1 °F 30.09 in SE 2.0 mph 3.5 mph 61% 0.00 in 174.2 W/m2
13:13 93.0 °F 77.6 °F 30.09 in South 0.8 mph 2.3 mph 61% 0.00 in 247.9 W/m2
13:18 93.4 °F 78.4 °F 30.08 in SSE 0.2 mph 2.3 mph 62% 0.00 in 305.2 W/m2
13:23 94.5 °F 78.5 °F 30.08 in ESE 0.1 mph 1.2 mph 60% 0.00 in 305.2 W/m2
13:28 95.2 °F 77.0 °F 30.08 in WSW 4.7 mph 5.8 mph 56% 0.00 in 305.2 W/m2
13:33 94.0 °F 78.0 °F 30.08 in Calm   1.2 mph 60% 0.00 in 247.9 W/m2
13:38 93.8 °F 77.8 °F 30.08 in SE 1.1 mph 2.3 mph 60% 0.00 in 174.2 W/m2
13:43 93.4 °F 77.4 °F 30.08 in SW 4.6 mph 6.9 mph 60% 0.00 in 245.2 W/m2
13:48 91.6 °F 79.1 °F 30.08 in WSW 5.6 mph 8.1 mph 67% 0.00 in 0.0 W/m2
13:53 89.8 °F 80.4 °F 30.08 in West 6.9 mph 9.2 mph 74% 0.00 in 468.1 W/m2
13:58 87.1 °F 79.8 °F 30.08 in WNW 4.4 mph 8.1 mph 79% 0.11 in 476.3 W/m2
14:03 84.8 °F 78.3 °F 30.09 in West 2.0 mph 9.2 mph 81% 0.25 in 154.2 W/m2
14:08 83.4 °F 77.7 °F 30.09 in West 9.9 mph 12.7 mph 83% 0.33 in 0.0 W/m2
14:13 81.4 °F 75.0 °F 30.08 in West 10.1 mph 15.4 mph 81% 0.37 in 0.0 W/m2
14:18 80.2 °F 74.6 °F 30.08 in West 7.4 mph 12.7 mph 83% 0.40 in 0.0 W/m2
14:24 79.5 °F 74.9 °F 30.09 in NW 9.3 mph 12.7 mph 86% 0.40 in 0.0 W/m2
14:29 78.5 °F 73.6 °F 30.10 in NW 11.9 mph 17.6 mph 85% 0.40 in 0.0 W/m2
14:34 76.1 °F 73.6 °F 30.10 in NNW 14.9 mph 20.7 mph 92% 0.62 in 0.0 W/m2
14:39 75.1 °F 73.6 °F 30.10 in NW 8.1 mph 13.2 mph 95% 0.70 in 0.0 W/m2
14:44 74.5 °F 73.0 °F 30.10 in NNW 8.7 mph 16.1 mph 95% 0.77 in 0.0 W/m2
14:49 74.2 °F 73.0 °F 30.11 in NW 4.0 mph 7.7 mph 96% 0.82 in 0.0 W/m2
14:54 74.0 °F 72.8 °F 30.13 in North 0.1 mph 1.2 mph 96% 0.87 in 0.0 W/m2
14:59 73.9 °F 73.0 °F 30.13 in North 4.4 mph 9.2 mph 97% 0.75 in 0.0 W/m2
15:04 73.8 °F 72.9 °F 30.12 in NE 2.7 mph 4.6 mph 97% 0.74 in 0.0 W/m2
15:09 73.9 °F 73.0 °F 30.12 in North 4.4 mph 6.9 mph 97% 0.86 in 0.0 W/m2
15:14 73.6 °F 72.7 °F 30.11 in NE 2.5 mph 5.8 mph 97% 0.92 in 0.0 W/m2
15:19 73.6 °F 73.0 °F 30.10 in ENE 0.2 mph   98% 0.99 in 0.0 W/m2
15:24 73.6 °F 73.0 °F 30.10 in NNE 0.1 mph 2.3 mph 98% 1.04 in 0.0 W/m2
15:29 73.7 °F 73.1 °F 30.09 in Calm     98% 1.07 in 0.0 W/m2
15:34 74.2 °F 73.6 °F 30.09 in East 0.3 mph 1.2 mph 98% 0.87 in 0.0 W/m2
15:39 74.3 °F 73.7 °F 30.08 in East 3.8 mph 4.6 mph 98% 0.78 in 0.0 W/m2
15:44 74.4 °F 73.8 °F 30.07 in East 0.2 mph 1.2 mph 98% 0.71 in 0.0 W/m2
15:49 74.8 °F 74.2 °F 30.07 in North 2.0 mph 3.5 mph 98% 0.66 in 0.0 W/m2
15:54 75.1 °F 74.5 °F 30.07 in Calm     98% 0.62 in 0.0 W/m2
15:59 75.5 °F 74.9 °F 30.06 in Calm   1.2 mph 98% 0.59 in 0.0 W/m2
16:04 76.1 °F 75.5 °F 30.07 in ENE 1.0 mph 2.3 mph 98% 0.47 in 0.0 W/m2
16:09 76.4 °F 75.8 °F 30.07 in NE 0.1 mph 1.2 mph 98% 0.28 in 0.0 W/m2
16:14 76.4 °F 75.8 °F 30.07 in Calm   1.2 mph 98% 0.18 in 0.0 W/m2
16:15 76.4 °F 75.8 °F 30.07 in Calm   1.2 mph 98% 0.15 in 0.0 W/m2
16:20 76.5 °F 75.9 °F 30.07 in Calm     98% 0.09 in 0.0 W/m2
16:25 77.0 °F 76.4 °F 30.07 in ESE 0.1 mph 1.2 mph 98% 0.03 in 0.0 W/m2
16:30 77.5 °F 76.9 °F 30.07 in Calm   1.2 mph 98% 0.01 in 0.0 W/m2
16:35 77.8 °F 77.2 °F 30.07 in East 0.8 mph 1.2 mph 98% 0.00 in 0.0 W/m2
16:40 78.2 °F 77.6 °F 30.07 in SSE 0.4 mph 1.2 mph 98% 0.00 in 0.0 W/m2
16:45 78.5 °F 77.9 °F 30.07 in Calm     98% 0.00 in 0.0 W/m2
16:50 78.5 °F 77.9 °F 30.06 in ENE 0.1 mph 1.2 mph 98% 0.00 in 0.0 W/m2
16:55 79.1 °F 78.5 °F 30.06 in Calm   1.2 mph 98% 0.00 in 0.0 W/m2
16:58 79.6 °F 79.0 °F 30.06 in Calm     98% 0.00 in 0.0 W/m2
17:03 80.3 °F 79.7 °F 30.07 in North 0.4 mph 1.2 mph 98% 0.00 in 0.0 W/m2
17:08 80.4 °F 79.8 °F 30.06 in Calm     98% 0.00 in 0.0 W/m2
17:13 80.4 °F 79.5 °F 30.06 in NW 0.7 mph 1.2 mph 97% 0.00 in 0.0 W/m2
17:18 81.2 °F 80.0 °F 30.06 in NE 0.4 mph 2.2 mph 96% 0.00 in 0.0 W/m2
17:23 82.3 °F 80.4 °F 30.07 in East 0.5 mph 1.2 mph 94% 0.00 in 0.0 W/m2
17:29 82.8 °F 79.2 °F 30.07 in Calm   1.2 mph 89% 0.00 in 0.0 W/m2
17:34 83.5 °F 78.2 °F 30.07 in Calm     84% 0.00 in 0.0 W/m2
17:39 83.9 °F 79.3 °F 30.08 in North 0.1 mph 1.2 mph 86% 0.00 in 0.0 W/m2
17:43 83.8 °F 79.9 °F 30.08 in NE 0.1 mph 2.3 mph 88% 0.00 in 0.0 W/m2
17:48 83.7 °F 79.4 °F 30.08 in NNW 2.0 mph 4.4 mph 87% 0.00 in 0.0 W/m2
17:53 83.3 °F 78.0 °F 30.08 in WNW 1.7 mph 1.7 mph 84% 0.00 in 0.0 W/m2
17:58 83.3 °F 77.2 °F 30.08 in Calm   1.2 mph 82% 0.00 in 0.0 W/m2
18:03 83.4 °F 77.3 °F 30.08 in North 1.0 mph 2.3 mph 82% 0.00 in 0.0 W/m2
18:08 83.3 °F 78.0 °F 30.08 in North 0.2 mph 1.2 mph 84% 0.00 in 0.0 W/m2
18:13 83.1 °F 77.8 °F 30.07 in NE 0.9 mph 2.3 mph 84% 0.00 in 0.0 W/m2
18:18 83.1 °F 77.8 °F 30.07 in Calm     84% 0.00 in 0.0 W/m2
18:23 83.1 °F 78.1 °F 30.07 in Calm     85% 0.00 in 0.0 W/m2
18:28 83.3 °F 78.0 °F 30.07 in Calm     84% 0.00 in 0.0 W/m2
18:34 83.3 °F 78.0 °F 30.07 in Calm     84% 0.00 in 0.0 W/m2
18:39 83.4 °F 77.7 °F 30.07 in Calm     83% 0.00 in 0.0 W/m2
18:44 83.6 °F 78.2 °F 30.07 in SSE 0.6 mph 1.2 mph 84% 0.00 in 0.0 W/m2
18:49 83.5 °F 78.5 °F 30.07 in ESE 0.1 mph 1.2 mph 85% 0.00 in 0.0 W/m2
18:54 83.4 °F 78.8 °F 30.07 in Calm     86% 0.00 in 0.0 W/m2
18:59 83.8 °F 78.8 °F 30.07 in East 0.2 mph 1.2 mph 85% 0.00 in 0.0 W/m2
19:04 84.1 °F 78.4 °F 30.07 in Calm   1.1 mph 83% 0.00 in 0.0 W/m2
19:09 83.6 °F 78.2 °F 30.07 in ESE 0.4 mph 1.2 mph 84% 0.00 in 0.0 W/m2
19:14 83.4 °F 78.8 °F 30.07 in ESE 0.4 mph 1.2 mph 86% 0.00 in 0.0 W/m2
19:19 83.2 °F 78.2 °F 30.07 in East 0.9 mph 2.3 mph 85% 0.00 in 0.0 W/m2
19:24 83.0 °F 78.4 °F 30.07 in ENE 0.1 mph 1.2 mph 86% 0.00 in 0.0 W/m2
19:29 82.8 °F 78.5 °F 30.07 in Calm     87% 0.00 in 0.0 W/m2
19:34 82.6 °F 78.7 °F 30.07 in Calm     88% 0.00 in 0.0 W/m2
19:39 82.4 °F 78.8 °F 30.07 in Calm     89% 0.00 in 0.0 W/m2
19:44 82.2 °F 78.6 °F 30.08 in Calm     89% 0.00 in 0.0 W/m2
19:49 81.9 °F 78.7 °F 30.07 in Calm     90% 0.00 in 0.0 W/m2
19:54 81.9 °F 78.7 °F 30.07 in Calm     90% 0.00 in 0.0 W/m2
19:59 81.7 °F 78.5 °F 30.07 in Calm     90% 0.00 in 0.0 W/m2
20:04 81.6 °F 78.7 °F 30.07 in Calm     91% 0.00 in 0.0 W/m2
20:10 81.4 °F 78.9 °F 30.07 in Calm   1.1 mph 92% 0.00 in 0.0 W/m2
20:15 81.2 °F 78.7 °F 30.08 in Calm   1.0 mph 92% 0.00 in 0.0 W/m2
20:20 81.0 °F 78.5 °F 30.08 in Calm   1.0 mph 92% 0.00 in 0.0 W/m2
20:25 81.0 °F 78.5 °F 30.08 in Calm   2.0 mph 92% 0.00 in 0.0 W/m2
20:30 81.0 °F 78.5 °F 30.07 in Calm     92% 0.00 in 0.0 W/m2
20:31 81.0 °F 78.5 °F 30.07 in Calm     92% 0.00 in 0.0 W/m2
20:36 81.0 °F 78.5 °F 30.07 in Calm     92% 0.00 in 0.0 W/m2
20:41 80.8 °F 78.3 °F 30.07 in Calm     92% 0.00 in 0.0 W/m2
20:46 80.9 °F 78.7 °F 30.07 in Calm     93% 0.00 in 0.0 W/m2
20:51 81.7 °F 79.1 °F 30.08 in Calm     92% 0.00 in 0.0 W/m2
20:56 81.7 °F 78.8 °F 30.08 in Calm     91% 0.00 in 0.0 W/m2
21:01 81.6 °F 78.7 °F 30.08 in Calm     91% 0.00 in 0.0 W/m2
21:03 81.4 °F 78.5 °F 30.08 in Calm     91% 0.00 in 0.0 W/m2
21:08 80.6 °F 77.7 °F 30.08 in SE 0.3 mph 1.2 mph 91% 0.00 in 0.0 W/m2
21:13 80.4 °F 77.5 °F 30.08 in ESE 0.3 mph 1.2 mph 91% 0.00 in 0.0 W/m2
21:18 80.4 °F 77.5 °F 30.08 in Calm     91% 0.00 in 0.0 W/m2
21:23 80.4 °F 77.5 °F 30.09 in Calm     91% 0.00 in 0.0 W/m2
21:29 80.3 °F 77.4 °F 30.09 in Calm     91% 0.00 in 0.0 W/m2
21:34 80.2 °F 77.3 °F 30.09 in Calm     91% 0.00 in 0.0 W/m2
21:39 80.0 °F 77.5 °F 30.09 in Calm     92% 0.00 in 0.0 W/m2
Juneau County Weather
Compliments of Weather Underground - 3 mb